createdAt,value
2022-10-08T00:01:13.467Z,80.41
2022-10-08T00:02:45.628Z,80.23
2022-10-08T00:04:17.903Z,80.33
2022-10-08T00:06:04.902Z,80.34
2022-10-08T00:07:37.228Z,80.33
2022-10-08T00:09:09.281Z,80.29
2022-10-08T00:10:41.275Z,80.32
2022-10-08T00:12:13.305Z,80.27
2022-10-08T00:13:48.267Z,80.42
2022-10-08T00:15:20.211Z,80.49
2022-10-08T00:16:55.056Z,80.47
2022-10-08T00:18:27.226Z,80.19
2022-10-08T00:19:59.194Z,80.22
2022-10-08T00:21:34.950Z,79.98
2022-10-08T00:23:07.010Z,80.10
2022-10-08T00:24:40.394Z,79.96
2022-10-08T00:26:12.552Z,79.73
2022-10-08T00:27:44.569Z,80.02
2022-10-08T00:29:18.436Z,80.08
2022-10-08T00:30:50.366Z,80.41
2022-10-08T00:32:22.364Z,80.35
2022-10-08T00:33:56.776Z,80.39
2022-10-08T00:35:28.839Z,80.35
2022-10-08T00:37:00.809Z,80.65
2022-10-08T00:38:33.174Z,80.71
2022-10-08T00:40:05.507Z,80.86
2022-10-08T00:41:38.896Z,81.06
2022-10-08T00:43:15.708Z,81.12
2022-10-08T00:44:48.066Z,81.19
2022-10-08T00:46:23.897Z,81.04
2022-10-08T00:47:58.206Z,81.14
2022-10-08T00:49:30.543Z,80.68
2022-10-08T00:51:02.871Z,80.49
2022-10-08T00:52:38.253Z,80.66
2022-10-08T00:54:10.987Z,80.78
2022-10-08T00:55:44.064Z,80.84
2022-10-08T00:57:16.625Z,80.95
2022-10-08T00:58:49.808Z,80.46
2022-10-08T01:00:25.890Z,80.53
2022-10-08T01:01:57.932Z,80.56
2022-10-08T01:03:29.961Z,80.88
2022-10-08T01:05:03.412Z,81.24
2022-10-08T01:06:35.226Z,81.18
2022-10-08T01:08:19.131Z,81.22
2022-10-08T01:10:09.431Z,81.51
2022-10-08T01:11:56.739Z,81.55
2022-10-08T01:13:38.200Z,81.50
2022-10-08T01:15:37.189Z,81.03
2022-10-08T01:17:30.622Z,80.99
2022-10-08T01:19:59.685Z,80.97
2022-10-08T01:22:12.368Z,81.42
2022-10-08T01:24:11.867Z,81.61
2022-10-08T01:27:32.384Z,82.02
2022-10-08T01:29:13.311Z,81.70
2022-10-08T01:30:53.542Z,81.91
2022-10-08T01:32:30.282Z,81.70
2022-10-08T01:34:25.841Z,81.80
2022-10-08T01:36:00.099Z,81.82
2022-10-08T01:37:35.139Z,81.86
2022-10-08T01:39:10.970Z,81.93
2022-10-08T01:40:44.526Z,82.12
2022-10-08T01:42:18.473Z,82.11
2022-10-08T01:43:56.662Z,82.16
2022-10-08T01:45:33.105Z,82.14
2022-10-08T01:47:08.151Z,81.93
2022-10-08T01:48:41.545Z,81.95
2022-10-08T01:50:18.345Z,81.85
2022-10-08T01:51:57.276Z,81.89
2022-10-08T01:53:33.859Z,82.29
2022-10-08T01:55:10.957Z,81.92
2022-10-08T01:56:43.980Z,82.05
2022-10-08T01:58:38.104Z,81.99
2022-10-08T02:00:12.895Z,81.78
2022-10-08T02:02:01.739Z,81.70
2022-10-08T02:03:33.840Z,81.56
2022-10-08T02:05:06.401Z,81.25
2022-10-08T02:06:43.975Z,80.86
2022-10-08T02:08:16.027Z,81.27
2022-10-08T02:09:53.234Z,81.34
2022-10-08T02:11:25.322Z,81.28
2022-10-08T02:12:57.398Z,81.35
2022-10-08T02:14:30.176Z,81.13
2022-10-08T02:16:12.072Z,81.35
2022-10-08T02:17:52.990Z,81.58
2022-10-08T02:19:48.305Z,81.42
2022-10-08T02:21:24.852Z,81.57
2022-10-08T02:23:00.645Z,81.46
2022-10-08T02:24:42.230Z,81.62
2022-10-08T02:26:18.262Z,82.18
2022-10-08T02:28:19.168Z,82.06
2022-10-08T02:31:41.186Z,82.50
2022-10-08T02:33:16.416Z,82.65
2022-10-08T02:35:27.929Z,82.42
2022-10-08T02:37:35.315Z,82.71
2022-10-08T02:39:08.169Z,82.87
2022-10-08T02:40:43.243Z,82.57
2022-10-08T02:42:19.729Z,82.59
2022-10-08T02:43:53.989Z,82.45
2022-10-08T02:45:30.434Z,82.20
2022-10-08T02:47:06.546Z,81.58
2022-10-08T02:48:42.607Z,81.80
2022-10-08T02:50:19.545Z,81.41
2022-10-08T02:51:53.331Z,81.71
2022-10-08T02:53:26.123Z,81.55
2022-10-08T02:55:00.820Z,81.61
2022-10-08T02:56:36.814Z,81.76
2022-10-08T02:58:10.751Z,82.01
2022-10-08T02:59:43.600Z,81.98
2022-10-08T03:01:57.852Z,81.63
2022-10-08T03:03:33.987Z,81.84
2022-10-08T03:05:08.119Z,82.07
2022-10-08T03:06:40.478Z,82.30
2022-10-08T03:08:15.076Z,82.52
2022-10-08T03:09:47.560Z,82.36
2022-10-08T03:11:19.629Z,82.46
2022-10-08T03:12:52.997Z,82.68
2022-10-08T03:14:25.648Z,82.69
2022-10-08T03:15:58.505Z,82.84
2022-10-08T03:17:37.041Z,83.02
2022-10-08T03:19:10.886Z,82.85
2022-10-08T03:20:46.781Z,83.02
2022-10-08T03:22:18.943Z,82.98
2022-10-08T03:23:50.974Z,83.33
2022-10-08T03:25:23.017Z,83.20
2022-10-08T03:26:55.276Z,83.13
2022-10-08T03:28:27.311Z,82.97
2022-10-08T03:29:59.459Z,83.05
2022-10-08T03:31:31.767Z,83.11
2022-10-08T03:33:03.852Z,82.99
2022-10-08T03:34:35.883Z,83.22
2022-10-08T03:36:08.118Z,83.11
2022-10-08T03:37:40.425Z,83.10
2022-10-08T03:39:12.692Z,83.29
2022-10-08T03:40:54.765Z,83.01
2022-10-08T03:42:26.780Z,83.12
2022-10-08T03:43:59.532Z,82.65
2022-10-08T03:45:31.568Z,82.38
2022-10-08T03:47:03.819Z,82.29
2022-10-08T03:48:36.356Z,82.03
2022-10-08T03:50:09.209Z,82.06
2022-10-08T03:51:41.211Z,82.18
2022-10-08T03:53:13.311Z,82.31
2022-10-08T03:54:45.363Z,82.13
2022-10-08T03:56:20.481Z,82.20
2022-10-08T03:57:53.092Z,82.30
2022-10-08T03:59:25.116Z,82.23
2022-10-08T04:01:01.649Z,82.76
2022-10-08T04:02:34.177Z,82.75
2022-10-08T04:04:06.217Z,82.58
2022-10-08T04:05:38.266Z,82.51
2022-10-08T04:07:10.259Z,82.38
2022-10-08T04:08:42.465Z,82.30
2022-10-08T04:10:14.480Z,82.18
2022-10-08T04:11:46.517Z,82.51
2022-10-08T04:13:19.041Z,82.54
2022-10-08T04:14:51.098Z,82.84
2022-10-08T04:16:23.107Z,82.46
2022-10-08T04:17:55.157Z,82.29
2022-10-08T04:19:27.249Z,82.14
2022-10-08T04:21:00.832Z,82.00
2022-10-08T04:22:33.144Z,82.16
2022-10-08T04:24:05.848Z,82.10
2022-10-08T04:25:38.414Z,82.16
2022-10-08T04:27:10.755Z,82.31
2022-10-08T04:28:45.501Z,82.42
2022-10-08T04:30:17.737Z,82.79
2022-10-08T04:31:49.729Z,82.84
2022-10-08T04:33:21.850Z,82.67
2022-10-08T04:34:53.880Z,82.50
2022-10-08T04:36:26.037Z,82.29
2022-10-08T04:38:00.850Z,82.54
2022-10-08T04:39:32.970Z,82.61
2022-10-08T04:41:11.263Z,82.59
2022-10-08T04:42:43.611Z,82.67
2022-10-08T04:44:16.059Z,82.87
2022-10-08T04:45:48.321Z,82.75
2022-10-08T04:47:20.457Z,82.57
2022-10-08T04:48:57.186Z,82.43
2022-10-08T04:50:32.180Z,82.45
2022-10-08T04:52:04.278Z,82.35
2022-10-08T04:53:37.730Z,82.40
2022-10-08T04:55:09.777Z,82.80
2022-10-08T04:56:41.958Z,83.09
2022-10-08T04:58:13.954Z,83.25
2022-10-08T05:00:13.161Z,83.10
2022-10-08T05:01:38.350Z,83.25
2022-10-08T05:03:10.850Z,83.11
2022-10-08T05:04:42.881Z,83.13
2022-10-08T05:06:16.748Z,82.86
2022-10-08T05:07:48.860Z,82.94
2022-10-08T05:09:21.094Z,83.08
2022-10-08T05:10:53.547Z,83.29
2022-10-08T05:12:25.547Z,83.00
2022-10-08T05:13:58.771Z,83.42
2022-10-08T05:15:31.017Z,83.43
2022-10-08T05:17:03.160Z,83.80
2022-10-08T05:18:36.609Z,84.03
2022-10-08T05:20:08.936Z,83.76
2022-10-08T05:21:41.207Z,84.23
2022-10-08T05:23:13.508Z,84.32
2022-10-08T05:24:46.252Z,84.28
2022-10-08T05:26:28.720Z,84.43
2022-10-08T05:28:13.338Z,84.46
2022-10-08T05:29:45.349Z,84.70
2022-10-08T05:31:18.046Z,84.61
2022-10-08T05:32:50.343Z,84.58
2022-10-08T05:34:22.836Z,84.54
2022-10-08T05:35:55.191Z,84.95
2022-10-08T05:37:27.520Z,84.84
2022-10-08T05:39:00.870Z,84.73
2022-10-08T05:40:33.233Z,84.66
2022-10-08T05:42:05.612Z,84.75
2022-10-08T05:43:37.990Z,84.80
2022-10-08T05:45:11.157Z,84.61
2022-10-08T05:46:43.568Z,84.80
2022-10-08T05:48:16.005Z,84.66
2022-10-08T05:49:48.000Z,84.60
2022-10-08T05:51:20.718Z,84.24
2022-10-08T05:52:52.946Z,84.43
2022-10-08T05:54:25.703Z,84.50
2022-10-08T05:56:05.772Z,84.13
2022-10-08T05:57:37.791Z,84.30
2022-10-08T05:59:21.541Z,84.20
2022-10-08T06:01:00.631Z,84.07
2022-10-08T06:02:32.865Z,84.31
2022-10-08T06:04:09.157Z,84.15
2022-10-08T06:05:41.416Z,84.09
2022-10-08T06:07:13.430Z,83.92
2022-10-08T06:08:45.919Z,83.82
2022-10-08T06:10:17.939Z,83.53
2022-10-08T06:11:50.443Z,82.96
2022-10-08T06:13:23.402Z,82.82
2022-10-08T06:15:01.531Z,83.09
2022-10-08T06:16:35.094Z,83.21
2022-10-08T06:18:07.477Z,83.29
2022-10-08T06:19:40.061Z,83.20
2022-10-08T06:21:17.502Z,82.71
2022-10-08T06:22:50.098Z,82.66
2022-10-08T06:24:22.405Z,82.63
2022-10-08T06:25:54.372Z,82.35
2022-10-08T06:27:26.545Z,82.04
2022-10-08T06:28:59.036Z,81.85
2022-10-08T06:30:31.271Z,81.54
2022-10-08T06:32:03.701Z,81.69
2022-10-08T06:33:36.544Z,81.72
2022-10-08T06:35:08.914Z,81.45
2022-10-08T06:36:41.785Z,81.56
2022-10-08T06:38:14.370Z,81.38
2022-10-08T06:39:48.572Z,81.63
2022-10-08T06:41:21.772Z,81.28
2022-10-08T06:42:54.656Z,81.42
2022-10-08T06:44:26.729Z,81.38
2022-10-08T06:46:00.558Z,81.08
2022-10-08T06:47:32.915Z,81.06
2022-10-08T06:49:06.518Z,80.90
2022-10-08T06:50:39.397Z,80.64
2022-10-08T06:52:13.032Z,79.87
2022-10-08T06:53:48.402Z,79.82
2022-10-08T06:55:20.671Z,79.51
2022-10-08T06:56:53.250Z,78.95
2022-10-08T06:58:26.142Z,78.39
2022-10-08T06:59:59.440Z,78.27
2022-10-08T07:51:10.304Z,71.29
2022-10-08T07:52:42.813Z,71.52
2022-10-08T07:54:17.825Z,71.44
2022-10-08T07:55:50.135Z,71.30
2022-10-08T07:57:22.431Z,71.64
2022-10-08T07:58:54.791Z,69.33
2022-10-08T08:00:26.989Z,69.65
2022-10-08T08:01:59.377Z,69.38
2022-10-08T08:03:32.033Z,68.67
2022-10-08T08:05:04.527Z,68.81
2022-10-08T08:06:42.207Z,68.53
2022-10-08T08:08:14.455Z,68.85
2022-10-08T08:09:46.976Z,68.95
2022-10-08T08:11:21.731Z,68.80
2022-10-08T08:12:54.134Z,68.36
2022-10-08T08:14:26.474Z,68.14
2022-10-08T08:16:00.426Z,67.47
2022-10-08T08:17:32.857Z,66.90
2022-10-08T08:19:05.391Z,66.63
2022-10-08T08:20:37.443Z,66.61
2022-10-08T08:22:09.932Z,66.69
2022-10-08T08:23:44.945Z,66.84
2022-10-08T08:25:17.339Z,66.49
2022-10-08T08:26:50.794Z,66.75
2022-10-08T08:28:24.175Z,65.20
2022-10-08T08:29:56.311Z,62.41
2022-10-08T08:31:37.214Z,62.94
2022-10-08T08:33:09.669Z,63.57
2022-10-08T08:34:42.349Z,63.59
2022-10-08T08:36:14.618Z,63.06
2022-10-08T08:37:46.892Z,62.73
2022-10-08T08:39:24.467Z,62.34
2022-10-08T08:41:09.206Z,62.92
2022-10-08T08:42:51.358Z,63.21
2022-10-08T08:44:33.218Z,63.23
2022-10-08T08:46:06.483Z,62.99
2022-10-08T08:47:42.455Z,62.22
2022-10-08T08:49:19.333Z,62.69
2022-10-08T08:50:54.639Z,61.75
2022-10-08T08:52:30.806Z,61.08
2022-10-08T08:54:03.811Z,60.59
2022-10-08T08:55:42.409Z,60.65
2022-10-08T08:57:32.624Z,59.99
2022-10-08T08:59:26.639Z,60.63
2022-10-08T09:01:08.624Z,60.28
2022-10-08T09:02:55.292Z,60.46
2022-10-08T09:04:39.539Z,60.90
2022-10-08T09:06:17.736Z,61.09
2022-10-08T09:07:54.867Z,61.31
2022-10-08T09:09:38.861Z,61.22
2022-10-08T09:11:15.367Z,58.17
2022-10-08T09:12:49.244Z,57.68
2022-10-08T09:14:44.041Z,57.63
2022-10-08T09:16:17.370Z,57.05
2022-10-08T09:17:50.525Z,55.93
2022-10-08T09:19:22.963Z,55.91
2022-10-08T09:20:55.360Z,56.63
2022-10-08T09:22:35.271Z,56.77
2022-10-08T09:25:41.067Z,57.16
2022-10-08T09:27:16.823Z,57.13
2022-10-08T09:28:53.232Z,57.45
2022-10-08T09:30:25.521Z,55.70
2022-10-08T09:31:57.848Z,55.53
2022-10-08T09:33:32.609Z,55.31
2022-10-08T09:35:08.373Z,55.51
2022-10-08T09:36:43.501Z,55.24
2022-10-08T09:38:27.378Z,55.87
2022-10-08T09:40:23.869Z,56.70
2022-10-08T09:42:08.068Z,57.34
2022-10-08T09:43:40.368Z,57.07
2022-10-08T09:45:35.128Z,56.85
2022-10-08T09:47:10.454Z,57.24
2022-10-08T09:48:46.210Z,56.83
2022-10-08T09:50:20.536Z,56.50
2022-10-08T09:51:53.337Z,56.37
2022-10-08T09:54:06.396Z,56.24
2022-10-08T09:55:38.720Z,55.36
2022-10-08T09:57:15.783Z,55.49
2022-10-08T09:58:59.307Z,56.21
2022-10-08T10:00:38.193Z,56.33
2022-10-08T10:02:34.565Z,56.83
2022-10-08T10:04:06.959Z,56.34
2022-10-08T10:05:39.272Z,54.14
2022-10-08T10:07:11.577Z,54.29
2022-10-08T10:08:49.011Z,54.45
2022-10-08T10:10:35.702Z,52.54
2022-10-08T10:12:29.878Z,54.22
2022-10-08T10:14:07.213Z,53.66
2022-10-08T10:15:44.175Z,54.16
2022-10-08T10:17:39.292Z,53.63
2022-10-08T10:19:23.571Z,51.46
2022-10-08T10:21:02.983Z,51.84
2022-10-08T10:24:29.229Z,51.29
2022-10-08T10:26:06.536Z,52.33
2022-10-08T10:27:48.317Z,52.11
2022-10-08T10:29:22.508Z,52.11
2022-10-08T10:31:00.465Z,51.49
2022-10-08T10:32:39.969Z,51.06
2022-10-08T10:34:28.033Z,51.16
2022-10-08T10:36:05.131Z,50.80
2022-10-08T10:37:47.246Z,51.50
2022-10-08T10:39:22.656Z,51.68
2022-10-08T10:41:28.798Z,51.26
2022-10-08T10:43:13.604Z,51.42
2022-10-08T10:44:58.296Z,50.67
2022-10-08T10:46:42.536Z,50.74
2022-10-08T10:48:15.364Z,49.84
2022-10-08T10:49:47.858Z,50.16
2022-10-08T10:51:58.974Z,50.25
2022-10-08T10:53:55.213Z,49.40
2022-10-08T10:55:45.424Z,50.78
2022-10-08T10:57:30.286Z,50.59
2022-10-08T10:59:29.109Z,48.38
2022-10-08T11:01:32.693Z,49.99
2022-10-08T11:03:31.872Z,48.14
2022-10-08T11:05:12.686Z,46.47
2022-10-08T11:07:03.447Z,47.96
2022-10-08T11:08:38.681Z,48.39
2022-10-08T11:10:17.216Z,46.40
2022-10-08T11:12:10.207Z,48.42
2022-10-08T11:13:52.601Z,47.24
2022-10-08T11:15:43.597Z,47.73
2022-10-08T11:17:47.396Z,45.77
2022-10-08T11:19:48.907Z,46.54
2022-10-08T11:21:59.757Z,44.67
2022-10-08T11:23:51.734Z,44.74
2022-10-08T11:25:24.842Z,45.51
2022-10-08T11:27:24.677Z,43.80
2022-10-08T11:29:07.707Z,45.25
2022-10-08T11:30:52.013Z,46.51
2022-10-08T11:32:24.807Z,44.02
2022-10-08T11:33:57.506Z,44.33
2022-10-08T11:35:55.589Z,46.07
2022-10-08T11:38:17.345Z,44.14
2022-10-08T11:40:33.945Z,44.85
2022-10-08T11:42:16.549Z,44.39
2022-10-08T11:43:58.411Z,44.35
2022-10-08T11:45:34.184Z,46.72
2022-10-08T11:47:43.339Z,45.34
2022-10-08T11:49:15.518Z,45.13
2022-10-08T11:50:47.846Z,44.95
2022-10-08T11:52:20.056Z,44.04
2022-10-08T11:54:00.832Z,44.45
2022-10-08T11:55:34.079Z,45.30
2022-10-08T11:57:24.638Z,44.09
2022-10-08T11:58:58.489Z,44.85
2022-10-08T12:00:44.427Z,45.58
2022-10-08T12:02:22.705Z,45.43
2022-10-08T12:04:21.963Z,44.99
2022-10-08T12:05:59.988Z,44.29
2022-10-08T12:07:35.221Z,43.47
2022-10-08T12:09:08.584Z,43.85
2022-10-08T12:10:41.059Z,44.82
2022-10-08T12:12:14.209Z,45.04
2022-10-08T12:14:12.562Z,42.52
2022-10-08T12:15:44.840Z,44.91
2022-10-08T12:17:17.590Z,44.88
2022-10-08T12:18:50.005Z,44.86
2022-10-08T12:20:27.868Z,43.92
2022-10-08T12:22:02.304Z,43.88
2022-10-08T12:23:38.908Z,44.34
2022-10-08T12:25:32.364Z,44.06
2022-10-08T12:27:25.951Z,44.45
2022-10-08T12:28:59.991Z,44.79
2022-10-08T12:30:59.396Z,44.29
2022-10-08T12:32:34.764Z,44.05
2022-10-08T12:34:20.175Z,43.38
2022-10-08T12:36:16.033Z,44.49
2022-10-08T12:38:14.267Z,44.13
2022-10-08T12:39:46.683Z,42.79
2022-10-08T12:41:26.338Z,42.74
2022-10-08T12:43:18.846Z,44.14
2022-10-08T12:45:00.558Z,43.42
2022-10-08T12:47:03.548Z,43.56
2022-10-08T12:48:39.495Z,44.22
2022-10-08T12:50:38.916Z,43.93
2022-10-08T12:52:19.526Z,44.15
2022-10-08T12:53:51.926Z,44.20
2022-10-08T12:55:24.381Z,44.03
2022-10-08T12:56:57.049Z,44.30
2022-10-08T12:58:29.587Z,44.55
2022-10-08T13:00:08.940Z,44.18
2022-10-08T13:01:44.679Z,41.99
2022-10-08T13:03:18.732Z,44.18
2022-10-08T13:04:51.263Z,42.29
2022-10-08T13:06:33.143Z,43.33
2022-10-08T13:08:27.877Z,45.03
2022-10-08T13:10:03.016Z,44.18
2022-10-08T13:11:35.276Z,44.32
2022-10-08T13:13:30.463Z,44.23
2022-10-08T13:15:06.263Z,44.48
2022-10-08T13:16:48.285Z,44.64
2022-10-08T13:18:22.723Z,44.91
2022-10-08T13:20:15.598Z,43.95
2022-10-08T13:21:55.746Z,44.41
2022-10-08T13:23:40.264Z,44.57
2022-10-08T13:25:35.346Z,43.57
2022-10-08T13:27:28.755Z,43.92
2022-10-08T13:29:22.641Z,44.30
2022-10-08T13:30:58.025Z,43.27
2022-10-08T13:32:39.909Z,44.26
2022-10-08T13:34:16.407Z,43.80
2022-10-08T13:35:59.171Z,44.60
2022-10-08T13:37:37.453Z,43.52
2022-10-08T13:39:20.845Z,42.62
2022-10-08T13:40:55.446Z,42.80
2022-10-08T13:42:37.292Z,43.87
2022-10-08T13:44:10.437Z,44.96
2022-10-08T13:45:42.887Z,43.57
2022-10-08T13:47:20.438Z,42.16
2022-10-08T13:48:52.786Z,43.51
2022-10-08T13:50:25.091Z,44.25
2022-10-08T13:51:59.131Z,42.47
2022-10-08T13:53:31.430Z,43.81
2022-10-08T13:55:06.259Z,43.99
2022-10-08T13:56:42.730Z,44.91
2022-10-08T13:58:16.418Z,44.85
2022-10-08T13:59:48.806Z,44.92
2022-10-08T14:01:21.838Z,44.66
2022-10-08T14:02:54.206Z,44.21
2022-10-08T14:04:27.384Z,43.89
2022-10-08T14:05:59.566Z,44.83
2022-10-08T14:07:33.158Z,43.89
2022-10-08T14:09:05.925Z,43.78
2022-10-08T14:10:41.198Z,43.50
2022-10-08T14:12:13.487Z,44.22
2022-10-08T14:13:45.829Z,44.98
2022-10-08T14:15:18.690Z,45.43
2022-10-08T14:16:51.352Z,43.99
2022-10-08T14:18:23.714Z,43.41
2022-10-08T14:19:56.306Z,43.08
2022-10-08T14:21:28.675Z,43.05
2022-10-08T14:23:00.879Z,43.67
2022-10-08T14:24:33.234Z,43.85
2022-10-08T14:26:11.718Z,45.31
2022-10-08T14:27:44.286Z,45.73
2022-10-08T14:29:16.491Z,45.64
2022-10-08T14:30:49.002Z,45.67
2022-10-08T14:34:01.479Z,45.73
2022-10-08T14:35:33.991Z,45.63
2022-10-08T14:37:07.103Z,45.91
2022-10-08T14:38:39.509Z,46.14
2022-10-08T14:40:20.389Z,46.31
2022-10-08T14:41:52.791Z,46.55
2022-10-08T14:43:27.688Z,46.66
2022-10-08T14:45:00.344Z,46.71
2022-10-08T14:46:32.701Z,46.76
2022-10-08T14:48:05.268Z,45.97
2022-10-08T14:49:37.608Z,47.13
2022-10-08T14:51:09.940Z,47.04
2022-10-08T14:52:44.543Z,47.37
2022-10-08T14:54:18.470Z,47.87
2022-10-08T14:56:11.026Z,48.03
2022-10-08T14:57:43.447Z,48.10
2022-10-08T14:59:15.955Z,48.14
2022-10-08T15:00:53.914Z,48.27
2022-10-08T15:02:26.391Z,47.99
2022-10-08T15:03:58.755Z,48.21
2022-10-08T15:05:31.236Z,48.42
2022-10-08T15:07:03.918Z,48.99
2022-10-08T15:08:36.424Z,48.90
2022-10-08T15:10:09.206Z,49.23
2022-10-08T15:11:41.559Z,49.58
2022-10-08T15:13:13.977Z,49.44
2022-10-08T15:14:46.325Z,49.98
2022-10-08T15:16:18.854Z,50.18
2022-10-08T15:17:51.311Z,50.17
2022-10-08T15:19:24.219Z,50.69
2022-10-08T15:20:57.843Z,50.74
2022-10-08T15:22:30.106Z,50.86
2022-10-08T15:24:02.517Z,51.26
2022-10-08T15:25:35.009Z,51.59
2022-10-08T15:27:07.306Z,51.97
2022-10-08T15:28:39.710Z,52.10
2022-10-08T15:30:13.018Z,52.55
2022-10-08T15:31:45.091Z,52.30
2022-10-08T15:33:18.277Z,52.60
2022-10-08T15:34:50.864Z,53.03
2022-10-08T15:36:28.215Z,53.43
2022-10-08T15:38:00.715Z,53.37
2022-10-08T15:39:35.938Z,53.84
2022-10-08T15:41:08.459Z,54.18
2022-10-08T15:42:40.863Z,54.35
2022-10-08T15:44:21.950Z,54.54
2022-10-08T15:45:57.255Z,55.07
2022-10-08T15:47:29.565Z,55.06
2022-10-08T15:49:04.501Z,55.48
2022-10-08T15:50:36.949Z,55.88
2022-10-08T15:52:11.845Z,55.61
2022-10-08T15:53:44.312Z,55.59
2022-10-08T15:55:16.923Z,55.74
2022-10-08T15:56:49.276Z,55.41
2022-10-08T15:58:45.840Z,55.72
2022-10-08T16:00:14.186Z,55.56
2022-10-08T16:01:46.832Z,55.98
2022-10-08T16:03:19.002Z,56.22
2022-10-08T16:04:52.548Z,56.04
2022-10-08T16:06:28.726Z,56.06
2022-10-08T16:08:01.139Z,56.60
2022-10-08T16:09:33.380Z,56.77
2022-10-08T16:11:19.935Z,57.06
2022-10-08T16:12:52.225Z,57.41
2022-10-08T16:14:25.972Z,58.17
2022-10-08T16:16:02.587Z,58.81
2022-10-08T16:17:34.912Z,58.25
2022-10-08T16:19:09.676Z,58.79
2022-10-08T16:20:42.122Z,58.57
2022-10-08T16:22:14.412Z,58.39
2022-10-08T16:23:46.994Z,58.77
2022-10-08T16:25:19.230Z,60.94
2022-10-08T16:26:51.988Z,61.51
2022-10-08T16:28:24.379Z,62.31
2022-10-08T16:29:56.751Z,62.64
2022-10-08T16:31:31.238Z,62.73
2022-10-08T16:33:03.550Z,63.18
2022-10-08T16:34:35.934Z,63.54
2022-10-08T16:36:09.420Z,63.57
2022-10-08T16:37:41.847Z,64.20
2022-10-08T16:39:18.392Z,64.38
2022-10-08T16:40:51.752Z,64.89
2022-10-08T16:42:26.057Z,64.66
2022-10-08T16:44:07.450Z,64.96
2022-10-08T16:45:43.963Z,65.60
2022-10-08T16:47:16.325Z,65.41
2022-10-08T16:49:11.365Z,65.80
2022-10-08T16:50:43.769Z,66.06
2022-10-08T16:52:16.096Z,66.17
2022-10-08T16:53:50.018Z,66.97
2022-10-08T16:55:22.256Z,66.99
2022-10-08T16:56:54.652Z,67.20
2022-10-08T16:58:26.894Z,67.41
2022-10-08T17:00:00.848Z,67.61
2022-10-08T17:01:34.305Z,67.68
2022-10-08T17:03:06.751Z,67.92
2022-10-08T17:04:40.302Z,67.87
2022-10-08T17:06:12.755Z,67.71
2022-10-08T17:07:45.159Z,68.38
2022-10-08T17:09:17.466Z,68.71
2022-10-08T17:10:50.546Z,69.39
2022-10-08T17:12:22.864Z,69.33
2022-10-08T17:13:57.348Z,69.14
2022-10-08T17:15:30.327Z,68.99
2022-10-08T17:17:02.831Z,69.17
2022-10-08T17:18:35.675Z,69.85
2022-10-08T17:20:08.693Z,69.59
2022-10-08T17:21:41.142Z,69.79
2022-10-08T17:23:13.558Z,69.77
2022-10-08T17:24:45.894Z,69.79
2022-10-08T17:26:22.593Z,70.07
2022-10-08T17:27:54.908Z,69.95
2022-10-08T17:29:27.302Z,70.23
2022-10-08T17:31:01.513Z,70.05
2022-10-08T17:32:33.868Z,70.19
2022-10-08T17:34:06.977Z,70.21
2022-10-08T17:35:39.219Z,70.28
2022-10-08T17:37:11.496Z,70.55
2022-10-08T17:38:45.261Z,70.74
2022-10-08T17:40:17.568Z,70.99
2022-10-08T17:41:50.306Z,70.91
2022-10-08T17:43:23.283Z,71.02
2022-10-08T17:44:55.563Z,71.06
2022-10-08T17:46:31.019Z,71.31
2022-10-08T17:48:03.715Z,71.41
2022-10-08T17:49:36.083Z,71.76
2022-10-08T17:51:11.416Z,71.89
2022-10-08T17:52:43.828Z,71.88
2022-10-08T17:54:19.542Z,71.63
2022-10-08T17:55:58.428Z,71.58
2022-10-08T17:57:30.752Z,71.90
2022-10-08T17:59:03.678Z,71.93
2022-10-08T18:00:36.051Z,71.92
2022-10-08T18:02:09.275Z,72.03
2022-10-08T18:03:42.958Z,72.20
2022-10-08T18:05:18.736Z,72.27
2022-10-08T18:06:58.682Z,72.78
2022-10-08T18:08:33.959Z,72.97
2022-10-08T18:10:06.736Z,73.42
2022-10-08T18:11:41.057Z,73.06
2022-10-08T18:13:13.405Z,73.18
2022-10-08T18:14:45.788Z,73.40
2022-10-08T18:16:19.471Z,73.31
2022-10-08T18:17:51.868Z,73.25
2022-10-08T18:19:24.268Z,73.24
2022-10-08T18:20:57.889Z,73.53
2022-10-08T18:22:31.243Z,73.80
2022-10-08T18:24:03.399Z,73.46
2022-10-08T18:25:38.857Z,73.68
2022-10-08T18:27:11.076Z,74.03
2022-10-08T18:28:43.855Z,73.99
2022-10-08T18:30:16.357Z,74.32
2022-10-08T18:31:48.694Z,74.35
2022-10-08T18:33:24.605Z,74.23
2022-10-08T18:34:57.147Z,74.34
2022-10-08T18:36:31.539Z,74.46
2022-10-08T18:38:04.049Z,74.43
2022-10-08T18:39:36.368Z,74.39
2022-10-08T18:41:11.512Z,74.32
2022-10-08T18:42:43.913Z,74.43
2022-10-08T18:44:24.826Z,74.70
2022-10-08T18:45:56.966Z,75.10
2022-10-08T18:47:29.214Z,75.40
2022-10-08T18:49:01.807Z,75.29
2022-10-08T18:50:34.427Z,75.17
2022-10-08T18:52:06.850Z,75.60
2022-10-08T18:53:41.072Z,75.64
2022-10-08T18:55:14.559Z,75.77
2022-10-08T18:56:46.514Z,75.63
2022-10-08T18:58:21.333Z,75.61
2022-10-08T18:59:53.603Z,75.78
2022-10-08T19:01:28.173Z,76.04
2022-10-08T19:03:00.662Z,76.30
2022-10-08T19:04:33.308Z,76.11
2022-10-08T19:06:07.906Z,76.38
2022-10-08T19:07:40.137Z,76.43
2022-10-08T19:09:12.793Z,76.92
2022-10-08T19:10:45.653Z,76.93
2022-10-08T19:12:17.979Z,76.98
2022-10-08T19:13:52.550Z,76.70
2022-10-08T19:15:24.836Z,76.79
2022-10-08T19:16:57.125Z,76.54
2022-10-08T19:18:29.332Z,76.63
2022-10-08T19:20:01.410Z,76.72
2022-10-08T19:21:35.429Z,76.71
2022-10-08T19:23:07.922Z,76.88
2022-10-08T19:24:41.266Z,76.64
2022-10-08T19:26:13.563Z,76.75
2022-10-08T19:27:47.734Z,76.89
2022-10-08T19:29:22.694Z,76.97
2022-10-08T19:30:54.815Z,76.93
2022-10-08T19:32:26.818Z,76.64
2022-10-08T19:34:01.492Z,76.60
2022-10-08T19:35:33.926Z,76.71
2022-10-08T19:37:06.309Z,76.75
2022-10-08T19:38:38.571Z,76.64
2022-10-08T19:40:11.037Z,76.73
2022-10-08T19:41:44.072Z,76.84
2022-10-08T19:43:16.643Z,77.00
2022-10-08T19:44:49.082Z,77.31
2022-10-08T19:46:22.049Z,77.21
2022-10-08T19:47:54.358Z,77.15
2022-10-08T19:49:26.687Z,77.20
2022-10-08T19:51:06.617Z,77.22
2022-10-08T19:52:38.722Z,77.06
2022-10-08T19:54:11.252Z,77.07
2022-10-08T19:55:43.572Z,77.01
2022-10-08T19:57:15.815Z,77.23
2022-10-08T19:58:50.228Z,77.42
2022-10-08T20:00:22.619Z,77.56
2022-10-08T20:01:55.018Z,77.56
2022-10-08T20:03:27.372Z,77.66
2022-10-08T20:04:59.662Z,77.62
2022-10-08T20:06:33.370Z,77.61
2022-10-08T20:08:05.990Z,77.89
2022-10-08T20:09:38.272Z,78.02
2022-10-08T20:11:13.832Z,78.16
2022-10-08T20:12:46.435Z,77.98
2022-10-08T20:14:18.946Z,78.08
2022-10-08T20:15:51.720Z,77.91
2022-10-08T20:19:05.519Z,77.92
2022-10-08T20:20:37.939Z,78.10
2022-10-08T20:22:11.958Z,77.84
2022-10-08T20:23:44.683Z,77.79
2022-10-08T20:25:19.748Z,78.39
2022-10-08T20:26:52.142Z,78.45
2022-10-08T20:28:24.666Z,78.43
2022-10-08T20:29:56.934Z,78.35
2022-10-08T20:31:34.546Z,78.41
2022-10-08T20:33:07.048Z,78.59
2022-10-08T20:34:39.087Z,78.50
2022-10-08T20:36:16.262Z,78.69
2022-10-08T20:37:48.544Z,78.58
2022-10-08T20:39:22.338Z,78.79
2022-10-08T20:40:56.329Z,78.92
2022-10-08T20:42:29.211Z,78.81
2022-10-08T20:44:03.329Z,79.07
2022-10-08T20:45:41.595Z,78.80
2022-10-08T20:47:14.170Z,78.81
2022-10-08T20:48:47.178Z,78.64
2022-10-08T20:50:19.202Z,78.51
2022-10-08T20:51:51.567Z,78.59
2022-10-08T20:53:23.936Z,78.71
2022-10-08T20:54:56.030Z,78.87
2022-10-08T20:56:29.528Z,78.83
2022-10-08T20:58:01.604Z,78.59
2022-10-08T20:59:34.536Z,78.81
2022-10-08T21:01:12.234Z,78.87
2022-10-08T21:02:44.538Z,78.87
2022-10-08T21:04:16.946Z,78.80
2022-10-08T21:05:48.998Z,78.74
2022-10-08T21:07:21.079Z,78.70
2022-10-08T21:08:56.564Z,78.77
2022-10-08T21:10:28.926Z,78.81
2022-10-08T21:12:01.145Z,79.17
2022-10-08T21:13:34.298Z,79.15
2022-10-08T21:16:49.024Z,79.18
2022-10-08T21:18:21.388Z,79.38
2022-10-08T21:19:53.358Z,79.22
2022-10-08T21:21:25.908Z,79.21
2022-10-08T21:22:57.890Z,79.32
2022-10-08T21:24:29.980Z,79.46
2022-10-08T21:26:35.520Z,79.22
2022-10-08T21:28:07.554Z,79.35
2022-10-08T21:29:39.694Z,79.33
2022-10-08T21:31:12.285Z,79.51
2022-10-08T21:32:44.519Z,79.15
2022-10-08T21:34:16.856Z,79.33
2022-10-08T21:35:48.927Z,78.94
2022-10-08T21:37:21.034Z,78.75
2022-10-08T21:38:53.029Z,78.51
2022-10-08T21:40:25.245Z,78.58
2022-10-08T21:41:57.266Z,78.40